createdAt,value
2019-05-05T00:01:58.334Z,4.67
2019-05-05T00:04:32.122Z,4.20
2019-05-05T00:07:01.807Z,4.63
2019-05-05T00:09:31.343Z,6.13
2019-05-05T00:12:10.942Z,5.27
2019-05-05T00:14:57.066Z,4.60
2019-05-05T00:17:28.152Z,4.20
2019-05-05T00:19:58.015Z,4.07
2019-05-05T00:22:29.085Z,3.37
2019-05-05T00:24:58.487Z,3.60
2019-05-05T00:27:29.416Z,3.23
2019-05-05T00:29:58.817Z,3.23
2019-05-05T00:32:28.254Z,3.80
2019-05-05T00:34:57.723Z,4.27
2019-05-05T00:37:27.199Z,4.80
2019-05-05T00:39:56.597Z,4.27
2019-05-05T00:42:26.047Z,3.73
2019-05-05T00:44:55.607Z,4.17
2019-05-05T00:47:26.696Z,3.97
2019-05-05T00:49:56.413Z,4.20
2019-05-05T00:52:25.937Z,4.13
2019-05-05T00:54:55.715Z,4.97
2019-05-05T00:57:25.151Z,5.20
2019-05-05T00:59:54.644Z,5.17
2019-05-05T01:02:40.487Z,6.20
2019-05-05T01:05:11.874Z,5.43
2019-05-05T01:07:41.376Z,4.90
2019-05-05T01:10:11.089Z,4.90
2019-05-05T01:12:40.524Z,5.53
2019-05-05T01:15:10.088Z,5.00
2019-05-05T01:17:39.522Z,4.70
2019-05-05T01:20:09.456Z,5.00
2019-05-05T01:22:38.956Z,4.80
2019-05-05T01:25:10.442Z,5.30
2019-05-05T01:27:40.648Z,4.77
2019-05-05T01:30:17.019Z,6.23
2019-05-05T01:32:50.808Z,6.07
2019-05-05T01:35:20.271Z,5.57
2019-05-05T01:37:57.595Z,6.13
2019-05-05T01:40:29.272Z,5.90
2019-05-05T01:42:59.241Z,5.97
2019-05-05T01:45:28.895Z,5.67
2019-05-05T01:47:58.465Z,6.33
2019-05-05T01:50:27.866Z,6.30
2019-05-05T01:52:57.300Z,5.20
2019-05-05T01:55:26.938Z,5.63
2019-05-05T01:57:56.768Z,5.93
2019-05-05T02:00:26.263Z,6.60
2019-05-05T02:02:55.776Z,7.80
2019-05-05T02:05:25.178Z,8.27
2019-05-05T02:07:55.354Z,9.77
2019-05-05T02:10:25.464Z,9.70
2019-05-05T02:12:55.242Z,8.80
2019-05-05T02:15:25.087Z,9.10
2019-05-05T02:17:55.121Z,9.03
2019-05-05T02:20:45.375Z,9.63
2019-05-05T02:23:16.636Z,8.43
2019-05-05T02:25:46.674Z,8.73
2019-05-05T02:28:17.928Z,8.23
2019-05-05T02:30:54.826Z,7.87
2019-05-05T02:33:26.160Z,8.53
2019-05-05T02:36:06.938Z,8.53
2019-05-05T02:38:36.463Z,7.93
2019-05-05T02:41:07.057Z,8.60
2019-05-05T02:43:38.210Z,8.90
2019-05-05T02:46:25.306Z,8.00
2019-05-05T02:49:00.052Z,8.83
2019-05-05T02:51:31.790Z,8.80
2019-05-05T02:54:04.542Z,8.93
2019-05-05T02:56:39.800Z,7.67
2019-05-05T02:59:11.621Z,8.83
2019-05-05T03:01:54.696Z,7.80
2019-05-05T03:04:36.100Z,8.00
2019-05-05T03:07:08.177Z,7.80
2019-05-05T03:09:38.935Z,8.10
2019-05-05T03:12:11.188Z,8.07
2019-05-05T03:14:44.493Z,7.50
2019-05-05T03:17:15.905Z,8.10
2019-05-05T03:19:45.604Z,8.37
2019-05-05T03:22:15.913Z,8.47
2019-05-05T03:24:46.927Z,8.50
2019-05-05T03:27:16.509Z,9.63
2019-05-05T03:29:46.915Z,9.20
2019-05-05T03:32:16.611Z,9.97
2019-05-05T03:34:46.418Z,8.43
2019-05-05T03:37:16.478Z,8.17
2019-05-05T03:39:48.496Z,9.63
2019-05-05T03:42:29.595Z,9.60
2019-05-05T03:45:01.009Z,9.70
2019-05-05T03:47:33.555Z,10.47
2019-05-05T03:50:04.377Z,9.70
2019-05-05T03:52:34.748Z,9.20
2019-05-05T03:55:09.953Z,9.23
2019-05-05T03:57:39.663Z,9.07
2019-05-05T04:00:11.561Z,9.80
2019-05-05T04:02:44.529Z,9.13
2019-05-05T04:05:16.135Z,9.80
2019-05-05T04:07:46.406Z,9.63
2019-05-05T04:10:17.619Z,9.93
2019-05-05T04:12:48.089Z,9.13
2019-05-05T04:15:17.628Z,9.27
2019-05-05T04:18:00.660Z,9.17
2019-05-05T04:20:33.599Z,9.40
2019-05-05T04:23:03.733Z,8.27
2019-05-05T04:25:35.000Z,8.53
2019-05-05T04:28:04.701Z,8.67
2019-05-05T04:30:34.169Z,9.77
2019-05-05T04:33:04.603Z,8.97
2019-05-05T04:35:34.258Z,10.30
2019-05-05T04:38:04.709Z,8.97
2019-05-05T04:40:34.656Z,9.27
2019-05-05T04:43:04.121Z,8.73
2019-05-05T04:45:35.434Z,9.07
2019-05-05T04:48:14.047Z,9.60
2019-05-05T04:50:45.092Z,9.43
2019-05-05T04:53:16.237Z,8.73
2019-05-05T04:55:45.625Z,8.87
2019-05-05T04:58:15.062Z,8.17
2019-05-05T05:00:44.527Z,8.20
2019-05-05T05:03:18.308Z,7.23
2019-05-05T05:05:54.994Z,6.27
2019-05-05T05:08:24.817Z,5.90
2019-05-05T05:10:54.406Z,7.43
2019-05-05T05:13:24.607Z,6.50
2019-05-05T05:15:54.130Z,6.87
2019-05-05T05:18:25.216Z,6.43
2019-05-05T05:20:55.026Z,6.53
2019-05-05T05:23:24.815Z,6.17
2019-05-05T05:25:54.597Z,7.13
2019-05-05T05:28:24.034Z,6.27
2019-05-05T05:30:54.531Z,6.47
2019-05-05T05:33:24.071Z,6.63
2019-05-05T05:35:54.671Z,6.73
2019-05-05T05:38:24.951Z,6.40
2019-05-05T05:40:56.091Z,6.30
2019-05-05T05:43:37.552Z,7.10
2019-05-05T05:46:13.519Z,6.03
2019-05-05T05:48:47.218Z,6.53
2019-05-05T05:51:19.512Z,6.67
2019-05-05T05:53:49.134Z,6.37
2019-05-05T05:56:18.575Z,6.33
2019-05-05T05:58:48.051Z,6.33
2019-05-05T06:01:17.558Z,6.27
2019-05-05T06:03:46.946Z,6.60
2019-05-05T06:06:17.931Z,5.73
2019-05-05T06:08:47.382Z,6.20
2019-05-05T06:11:16.878Z,5.77
2019-05-05T06:13:47.663Z,6.20
2019-05-05T06:16:17.173Z,5.97
2019-05-05T06:18:46.604Z,5.93
2019-05-05T06:21:16.195Z,6.33
2019-05-05T06:23:45.826Z,6.70
2019-05-05T06:26:15.547Z,6.30
2019-05-05T06:28:45.249Z,6.07
2019-05-05T06:31:15.582Z,6.90
2019-05-05T06:33:45.576Z,7.20
2019-05-05T06:36:14.976Z,6.03
2019-05-05T06:38:44.409Z,6.00
2019-05-05T06:41:18.666Z,5.33
2019-05-05T06:43:49.783Z,5.77
2019-05-05T06:46:24.332Z,5.23
2019-05-05T06:48:53.973Z,4.67
2019-05-05T06:51:24.547Z,5.40
2019-05-05T06:53:54.148Z,4.20
2019-05-05T06:56:23.869Z,4.93
2019-05-05T06:58:54.120Z,4.83
2019-05-05T07:01:25.354Z,4.80
2019-05-05T07:03:54.794Z,4.93
2019-05-05T07:06:24.199Z,4.97
2019-05-05T07:08:54.568Z,4.20
2019-05-05T07:11:24.309Z,4.80
2019-05-05T07:13:53.855Z,4.63
2019-05-05T07:16:24.329Z,5.07
2019-05-05T07:18:54.773Z,4.20
2019-05-05T07:21:24.177Z,4.80
2019-05-05T07:23:54.109Z,4.43
2019-05-05T07:26:23.862Z,4.40
2019-05-05T07:28:54.127Z,4.93
2019-05-05T07:31:23.986Z,5.00
2019-05-05T07:33:54.463Z,5.50
2019-05-05T07:36:35.198Z,5.17
2019-05-05T07:39:07.090Z,4.97
2019-05-05T07:41:36.499Z,5.67
2019-05-05T07:44:06.031Z,5.10
2019-05-05T07:46:35.441Z,4.77
2019-05-05T07:49:05.116Z,4.37
2019-05-05T07:51:34.600Z,5.10
2019-05-05T07:54:04.259Z,5.30
2019-05-05T07:56:34.373Z,4.37
2019-05-05T07:59:04.140Z,5.13
2019-05-05T08:01:33.963Z,4.30
2019-05-05T08:04:04.458Z,5.33
2019-05-05T08:06:35.630Z,3.80
2019-05-05T08:09:06.803Z,4.30
2019-05-05T08:11:36.244Z,4.90
2019-05-05T08:14:05.663Z,4.20
2019-05-05T08:16:39.452Z,4.20
2019-05-05T08:19:27.281Z,5.00
2019-05-05T08:21:56.746Z,4.57
2019-05-05T08:24:30.483Z,4.23
2019-05-05T08:27:14.434Z,4.60
2019-05-05T08:29:48.472Z,4.33
2019-05-05T08:32:28.466Z,4.77
2019-05-05T08:35:00.758Z,4.33
2019-05-05T08:37:29.190Z,4.40
2019-05-05T08:39:58.597Z,4.63
2019-05-05T08:42:28.063Z,4.50
2019-05-05T08:44:57.527Z,3.90
2019-05-05T08:47:28.617Z,4.37
2019-05-05T08:49:58.043Z,3.80
2019-05-05T08:52:27.558Z,4.10
2019-05-05T08:54:57.028Z,4.37
2019-05-05T08:57:28.224Z,4.50
2019-05-05T08:59:57.618Z,4.67
2019-05-05T09:02:27.144Z,6.13
2019-05-05T09:04:56.551Z,4.70
2019-05-05T09:07:25.991Z,4.90
2019-05-05T09:09:55.408Z,4.63
2019-05-05T09:12:24.905Z,4.97
2019-05-05T09:14:54.328Z,5.27
2019-05-05T09:17:24.456Z,5.53
2019-05-05T09:19:55.094Z,5.70
2019-05-05T09:22:24.701Z,5.47
2019-05-05T09:24:56.913Z,6.13
2019-05-05T09:27:34.727Z,5.90
2019-05-05T09:30:05.661Z,5.80
2019-05-05T09:32:35.112Z,4.97
2019-05-05T09:35:06.508Z,4.63
2019-05-05T09:37:36.036Z,5.40
2019-05-05T09:40:06.919Z,5.27
2019-05-05T09:42:36.426Z,4.77
2019-05-05T09:45:07.776Z,5.33
2019-05-05T09:47:37.611Z,4.80
2019-05-05T09:50:07.796Z,5.03
2019-05-05T09:52:37.258Z,4.20
2019-05-05T09:55:07.991Z,3.53
2019-05-05T09:57:37.436Z,3.70
2019-05-05T10:00:10.076Z,4.50
2019-05-05T10:02:41.051Z,4.53
2019-05-05T10:05:10.958Z,4.83
2019-05-05T10:07:40.402Z,5.43
2019-05-05T10:10:10.478Z,5.00
2019-05-05T10:12:39.951Z,4.77
2019-05-05T10:15:09.529Z,4.07
2019-05-05T10:17:38.970Z,4.20
2019-05-05T10:20:10.277Z,4.77
2019-05-05T10:22:39.799Z,4.77
2019-05-05T10:25:27.931Z,4.93
2019-05-05T10:27:57.965Z,5.27
2019-05-05T10:30:27.439Z,4.90
2019-05-05T10:32:57.018Z,4.73
2019-05-05T10:35:26.676Z,5.10
2019-05-05T10:37:56.088Z,4.97
2019-05-05T10:40:33.898Z,5.17
2019-05-05T10:43:04.503Z,5.10
2019-05-05T10:45:35.767Z,4.83
2019-05-05T10:48:05.416Z,5.70
2019-05-05T10:50:34.944Z,5.87
2019-05-05T10:53:04.794Z,5.50
2019-05-05T10:55:34.875Z,4.97
2019-05-05T10:58:04.488Z,4.17
2019-05-05T11:00:44.444Z,4.40
2019-05-05T11:03:15.130Z,4.70
2019-05-05T11:05:45.392Z,4.83
2019-05-05T11:08:15.339Z,5.00
2019-05-05T11:10:45.341Z,5.60
2019-05-05T11:13:15.095Z,5.00
2019-05-05T11:15:44.687Z,4.40
2019-05-05T11:18:15.112Z,4.90
2019-05-05T11:20:45.211Z,4.17
2019-05-05T11:23:15.376Z,4.77
2019-05-05T11:25:45.060Z,4.67
2019-05-05T11:28:14.490Z,4.80
2019-05-05T11:30:47.164Z,3.87
2019-05-05T11:33:36.466Z,4.20
2019-05-05T11:36:07.280Z,4.97
2019-05-05T11:38:36.716Z,4.40
2019-05-05T11:41:06.331Z,4.33
2019-05-05T11:43:35.838Z,4.93
2019-05-05T11:46:05.342Z,5.53
2019-05-05T11:48:34.801Z,6.20
2019-05-05T11:51:05.832Z,5.00
2019-05-05T11:53:35.307Z,4.53
2019-05-05T11:56:04.879Z,4.83
2019-05-05T11:58:34.316Z,4.73
2019-05-05T12:01:04.039Z,5.43
2019-05-05T12:03:34.111Z,4.03
2019-05-05T12:06:04.142Z,4.67
2019-05-05T12:08:34.707Z,3.83
2019-05-05T12:11:06.307Z,4.80
2019-05-05T12:13:35.860Z,4.40
2019-05-05T12:16:06.229Z,4.53
2019-05-05T12:18:35.749Z,5.10
2019-05-05T12:21:05.524Z,4.20
2019-05-05T12:23:35.998Z,4.13
2019-05-05T12:26:24.397Z,3.60
2019-05-05T12:28:55.671Z,3.63
2019-05-05T12:31:35.719Z,3.70
2019-05-05T12:34:06.468Z,3.80
2019-05-05T12:36:36.087Z,3.30
2019-05-05T12:39:08.906Z,3.67
2019-05-05T12:41:39.383Z,4.10
2019-05-05T12:44:10.557Z,3.63
2019-05-05T12:46:41.677Z,4.13
2019-05-05T12:49:13.841Z,2.97
2019-05-05T12:51:43.678Z,3.83
2019-05-05T12:54:14.718Z,4.00
2019-05-05T12:56:45.866Z,3.40
2019-05-05T12:59:16.938Z,3.20
2019-05-05T13:01:46.403Z,3.37
2019-05-05T13:04:15.962Z,2.97
2019-05-05T13:06:45.353Z,3.30
2019-05-05T13:09:16.105Z,4.07
2019-05-05T13:11:45.674Z,3.00
2019-05-05T13:14:16.756Z,3.10
2019-05-05T13:16:52.397Z,3.10
2019-05-05T13:19:24.064Z,2.60
2019-05-05T13:21:57.464Z,3.23
2019-05-05T13:24:46.724Z,2.47
2019-05-05T13:27:19.864Z,2.77
2019-05-05T13:29:49.575Z,2.97
2019-05-05T13:32:19.090Z,2.87
2019-05-05T13:34:48.515Z,3.13
2019-05-05T13:37:17.964Z,2.43
2019-05-05T13:39:47.438Z,2.60
2019-05-05T13:42:16.882Z,2.50
2019-05-05T13:44:56.915Z,2.50
2019-05-05T13:47:26.482Z,2.70
2019-05-05T13:49:57.540Z,2.77
2019-05-05T13:52:26.978Z,2.27
2019-05-05T13:54:56.401Z,2.67
2019-05-05T13:57:25.818Z,2.07
2019-05-05T13:59:55.330Z,2.57
2019-05-05T14:02:24.770Z,2.50
2019-05-05T14:04:54.308Z,2.53
2019-05-05T14:07:24.108Z,2.80
2019-05-05T14:09:54.951Z,2.90
2019-05-05T14:12:24.557Z,2.63
2019-05-05T14:14:54.626Z,2.83
2019-05-05T14:17:24.879Z,2.80
2019-05-05T14:20:02.477Z,2.90
2019-05-05T14:22:25.423Z,2.70
2019-05-05T14:25:00.434Z,3.27
2019-05-05T14:27:31.672Z,3.10
2019-05-05T14:30:11.978Z,3.53
2019-05-05T14:32:43.841Z,3.50
2019-05-05T14:35:17.946Z,3.30
2019-05-05T14:37:54.939Z,2.97
2019-05-05T14:40:24.381Z,2.80
2019-05-05T14:42:54.027Z,3.00
2019-05-05T14:45:23.706Z,2.70
2019-05-05T14:47:53.647Z,2.23
2019-05-05T14:50:24.183Z,2.50
2019-05-05T14:52:53.750Z,2.40
2019-05-05T14:55:25.444Z,2.60
2019-05-05T14:57:54.486Z,2.77
2019-05-05T15:00:25.346Z,3.00
2019-05-05T15:02:55.461Z,3.30
2019-05-05T15:05:35.687Z,3.60
2019-05-05T15:08:24.183Z,2.97
2019-05-05T15:11:00.869Z,3.87
2019-05-05T15:13:30.326Z,3.63
2019-05-05T15:15:59.866Z,4.03
2019-05-05T15:18:29.316Z,3.70
2019-05-05T15:20:58.836Z,3.40
2019-05-05T15:23:28.461Z,3.53
2019-05-05T15:25:57.973Z,4.37
2019-05-05T15:28:27.576Z,3.93
2019-05-05T15:30:57.020Z,3.33
2019-05-05T15:33:26.598Z,4.40
2019-05-05T15:35:56.127Z,4.27
2019-05-05T15:38:26.103Z,4.83
2019-05-05T15:40:55.901Z,4.67
2019-05-05T15:43:25.428Z,4.10
2019-05-05T15:45:54.854Z,3.07
2019-05-05T15:48:24.282Z,3.37
2019-05-05T15:50:54.638Z,3.50
2019-05-05T15:53:24.555Z,3.50
2019-05-05T15:55:54.197Z,3.40
2019-05-05T15:58:23.737Z,3.73
2019-05-05T16:01:06.642Z,3.37
2019-05-05T16:03:36.113Z,3.70
2019-05-05T16:06:05.535Z,4.23
2019-05-05T16:08:35.007Z,4.43
2019-05-05T16:11:04.491Z,4.33
2019-05-05T16:13:35.362Z,4.57
2019-05-05T16:16:06.789Z,4.00
2019-05-05T16:18:37.965Z,3.83
2019-05-05T16:21:18.311Z,4.03
2019-05-05T16:23:55.180Z,3.83
2019-05-05T16:26:26.216Z,4.07
2019-05-05T16:28:55.641Z,4.33
2019-05-05T16:31:27.578Z,3.97
2019-05-05T16:33:56.421Z,3.80
2019-05-05T16:36:27.305Z,3.43
2019-05-05T16:38:56.745Z,3.90
2019-05-05T16:41:26.320Z,3.87
2019-05-05T16:43:55.964Z,3.50
2019-05-05T16:46:25.544Z,4.43
2019-05-05T16:48:54.999Z,3.77
2019-05-05T16:51:29.078Z,3.80
2019-05-05T16:54:00.175Z,3.57
2019-05-05T16:56:30.054Z,3.70
2019-05-05T16:58:59.540Z,3.87
2019-05-05T17:01:29.129Z,3.53
2019-05-05T17:06:41.291Z,4.10
2019-05-05T17:09:10.733Z,4.00
2019-05-05T17:11:40.334Z,3.20
2019-05-05T17:14:11.449Z,3.20
2019-05-05T17:16:48.616Z,3.57
2019-05-05T17:19:33.767Z,3.33
2019-05-05T17:22:07.877Z,3.37
2019-05-05T17:24:38.888Z,3.57
2019-05-05T17:27:08.466Z,3.10
2019-05-05T17:29:37.930Z,3.83
2019-05-05T17:32:07.582Z,3.83
2019-05-05T17:34:37.006Z,3.70
2019-05-05T17:37:06.517Z,3.33
2019-05-05T17:39:37.603Z,3.73
2019-05-05T17:42:15.007Z,3.17
2019-05-05T17:44:46.123Z,3.00
2019-05-05T17:47:24.447Z,3.07
2019-05-05T17:49:58.516Z,3.07
2019-05-05T17:52:46.027Z,3.30
2019-05-05T17:58:16.009Z,3.17
2019-05-05T18:00:48.095Z,3.60
2019-05-05T18:03:17.545Z,3.60
2019-05-05T18:06:06.036Z,3.70
2019-05-05T18:08:37.154Z,4.40
2019-05-05T18:14:06.844Z,4.20
2019-05-05T18:16:36.249Z,3.80
2019-05-05T18:19:05.916Z,4.57
2019-05-05T18:21:36.832Z,4.40
2019-05-05T18:24:07.028Z,4.57
2019-05-05T18:26:36.728Z,4.50
2019-05-05T18:29:06.188Z,3.90
2019-05-05T18:31:35.882Z,3.77
2019-05-05T18:34:06.859Z,3.73
2019-05-05T18:36:36.290Z,4.00
2019-05-05T18:39:08.303Z,4.03
2019-05-05T18:41:58.593Z,4.27
2019-05-05T18:44:33.502Z,4.40
2019-05-05T18:47:14.395Z,4.53
2019-05-05T18:49:42.451Z,4.73
2019-05-05T18:52:13.792Z,5.33
2019-05-05T18:54:43.614Z,5.17
2019-05-05T18:57:13.259Z,5.20
2019-05-05T18:59:44.717Z,5.00
2019-05-05T19:02:31.856Z,5.13
2019-05-05T19:05:04.749Z,5.30
2019-05-05T19:07:38.369Z,5.47
2019-05-05T19:10:08.408Z,5.67
2019-05-05T19:12:38.192Z,7.03
2019-05-05T19:15:07.878Z,6.23
2019-05-05T19:17:37.313Z,6.03
2019-05-05T19:20:09.448Z,6.00
2019-05-05T19:22:38.882Z,6.27
2019-05-05T19:25:17.344Z,6.30
2019-05-05T19:27:47.094Z,6.27
2019-05-05T19:30:18.056Z,7.07
2019-05-05T19:32:47.535Z,6.80
2019-05-05T19:35:16.977Z,6.53
2019-05-05T19:37:46.469Z,6.77
2019-05-05T19:40:16.049Z,6.50
2019-05-05T19:42:46.294Z,6.13
2019-05-05T19:45:15.955Z,6.40
2019-05-05T19:47:45.467Z,6.53
2019-05-05T19:50:18.287Z,6.67
2019-05-05T19:52:47.842Z,6.47
2019-05-05T19:55:17.347Z,6.83
2019-05-05T19:57:46.957Z,6.40
2019-05-05T20:00:18.109Z,6.40
2019-05-05T20:03:00.424Z,6.80
2019-05-05T20:05:18.957Z,6.77
2019-05-05T20:07:49.317Z,6.23
2019-05-05T20:10:19.002Z,5.93
2019-05-05T20:12:48.502Z,5.70
2019-05-05T20:15:25.612Z,6.20
2019-05-05T20:17:55.244Z,6.17
2019-05-05T20:20:24.676Z,5.87
2019-05-05T20:22:54.775Z,6.23
2019-05-05T20:25:24.495Z,5.87
2019-05-05T20:27:55.979Z,6.03
2019-05-05T20:30:26.642Z,5.57
2019-05-05T20:32:57.790Z,5.27
2019-05-05T20:35:29.048Z,5.60
2019-05-05T20:38:06.113Z,6.57
2019-05-05T20:40:37.194Z,6.27
2019-05-05T20:43:06.630Z,7.00
2019-05-05T20:45:36.398Z,5.77
2019-05-05T20:48:06.358Z,6.83
2019-05-05T20:50:35.924Z,6.30
2019-05-05T20:53:05.463Z,5.97
2019-05-05T20:55:34.883Z,6.37
2019-05-05T20:58:04.779Z,6.53
2019-05-05T21:00:34.895Z,6.40
2019-05-05T21:03:05.000Z,5.83
2019-05-05T21:05:34.873Z,6.43
2019-05-05T21:08:06.150Z,5.60
2019-05-05T21:10:35.592Z,5.97
2019-05-05T21:13:06.562Z,5.97
2019-05-05T21:15:36.169Z,6.00
2019-05-05T21:18:05.681Z,5.57
2019-05-05T21:20:35.119Z,6.20
2019-05-05T21:23:14.338Z,5.80
2019-05-05T21:25:54.484Z,6.57
2019-05-05T21:28:24.195Z,6.37
2019-05-05T21:30:54.147Z,6.27
2019-05-05T21:33:24.067Z,5.73
2019-05-05T21:35:55.106Z,5.63
2019-05-05T21:38:24.722Z,5.07
2019-05-05T21:40:54.168Z,4.80
2019-05-05T21:43:25.138Z,4.97
2019-05-05T21:45:54.602Z,6.03
2019-05-05T21:48:25.853Z,4.40
2019-05-05T21:50:56.941Z,4.67
2019-05-05T21:53:44.273Z,4.07
2019-05-05T21:56:34.078Z,5.03
2019-05-05T21:59:04.157Z,5.20
2019-05-05T22:01:39.759Z,5.30
2019-05-05T22:04:06.045Z,5.17
2019-05-05T22:06:35.566Z,5.30
2019-05-05T22:09:06.910Z,5.40
2019-05-05T22:11:36.340Z,5.67
2019-05-05T22:14:05.906Z,5.10
2019-05-05T22:16:35.573Z,6.07
2019-05-05T22:19:06.207Z,5.77
2019-05-05T22:21:43.735Z,5.90
2019-05-05T22:24:15.923Z,5.60
2019-05-05T22:26:45.738Z,6.17
2019-05-05T22:29:18.780Z,5.90
2019-05-05T22:31:48.937Z,6.30
2019-05-05T22:34:18.524Z,6.20
2019-05-05T22:36:48.037Z,6.03
2019-05-05T22:39:17.678Z,6.30
2019-05-05T22:41:47.172Z,5.87
2019-05-05T22:44:16.817Z,6.77
2019-05-05T22:46:46.579Z,6.43
2019-05-05T22:49:16.138Z,6.73
2019-05-05T22:51:45.662Z,6.53
2019-05-05T22:54:16.746Z,6.37
2019-05-05T22:56:46.249Z,6.30
2019-05-05T22:59:15.845Z,6.47
2019-05-05T23:01:45.440Z,6.43
2019-05-05T23:04:31.843Z,6.30
2019-05-05T23:07:03.868Z,6.27
2019-05-05T23:09:33.415Z,6.07
2019-05-05T23:12:04.208Z,6.60
2019-05-05T23:14:34.373Z,6.40
2019-05-05T23:17:22.067Z,6.53
2019-05-05T23:19:59.179Z,6.13
2019-05-05T23:22:48.448Z,5.77
2019-05-05T23:25:25.723Z,6.60
2019-05-05T23:27:56.845Z,6.40
2019-05-05T23:30:38.569Z,6.20
2019-05-05T23:32:57.542Z,6.40
2019-05-05T23:35:26.935Z,6.33
2019-05-05T23:37:56.379Z,5.70
2019-05-05T23:40:27.394Z,6.30
2019-05-05T23:42:56.831Z,6.60
2019-05-05T23:45:26.231Z,6.13
2019-05-05T23:47:55.802Z,6.80
2019-05-05T23:50:25.304Z,5.90
2019-05-05T23:52:54.893Z,7.00
2019-05-05T23:55:24.577Z,6.53
2019-05-05T23:57:54.908Z,6.37
